Time;durP1;ratioP1;P1;durP2;ratioP2;P2;SDS_P1;SDS_P2;PMS_P1;PMS_P2;Temp;Humidity;BMP_temperature;BMP_pressure;BME280_temperature;BME280_humidity;BME280_pressure;Samples;Min_cycle;Max_cycle;Signal;HPM_P1;HPM_P2
2022/10/18 00:01:17;;;;;;;10.50;6.65;;;;;;;16.70;83.38;101082.50;2830575;82;21039;-90
2022/10/18 00:05:20;;;;;;;11.10;7.08;;;;;;;16.66;83.55;101085.10;2837972;82;21183;-90
2022/10/18 00:09:21;;;;;;;13.43;8.38;;;;;;;16.61;84.08;101083.88;2849649;82;21128;-90
2022/10/18 00:13:23;;;;;;;10.82;7.85;;;;;;;16.57;84.05;101083.31;2854614;82;21136;-89
2022/10/18 00:17:24;;;;;;;10.65;7.65;;;;;;;16.56;84.24;101085.64;2809146;81;21067;-90
2022/10/18 00:21:26;;;;;;;8.33;7.40;;;;;;;16.51;84.32;101083.90;2797310;81;21098;-90
2022/10/18 00:25:27;;;;;;;9.03;8.15;;;;;;;16.46;84.98;101086.16;2801931;83;21145;-90
2022/10/18 00:29:28;;;;;;;11.90;8.50;;;;;;;16.40;84.78;101088.43;2815527;83;21051;-90
2022/10/18 00:33:29;;;;;;;11.70;7.42;;;;;;;16.32;85.50;101088.31;2782600;83;21165;-90
2022/10/18 00:37:31;;;;;;;16.27;7.97;;;;;;;16.25;85.63;101081.81;2757268;83;21204;-91
2022/10/18 00:41:36;;;;;;;10.13;7.72;;;;;;;16.23;85.70;101081.11;2858906;80;21169;-90
2022/10/18 00:45:38;;;;;;;9.88;7.22;;;;;;;16.15;86.34;101077.80;2816826;81;21047;-91
2022/10/18 00:49:47;;;;;;;9.65;7.78;;;;;;;16.10;86.33;101078.22;2844445;82;21074;-90
2022/10/18 00:53:49;;;;;;;13.75;8.70;;;;;;;16.09;86.79;101077.03;2816258;83;21011;-91
2022/10/18 00:57:51;;;;;;;12.15;9.13;;;;;;;15.99;87.38;101082.41;2845398;82;21088;-90
2022/10/18 01:01:53;;;;;;;13.78;7.95;;;;;;;15.86;88.00;101070.59;2863489;81;21031;-90
2022/10/18 01:05:54;;;;;;;10.35;8.95;;;;;;;15.80;88.30;101077.84;2792461;81;21117;-91
2022/10/18 01:10:25;;;;;;;10.93;8.15;;;;;;;15.75;88.57;101072.92;2773003;83;21037;-90
2022/10/18 01:14:41;;;;;;;11.33;7.92;;;;;;;15.76;88.36;101070.59;2782670;83;21102;-90
2022/10/18 01:19:23;;;;;;;11.95;7.97;;;;;;;15.77;88.14;101066.92;2827163;82;21088;-91
2022/10/18 01:23:52;;;;;;;12.25;7.95;;;;;;;15.80;88.08;101076.02;2777928;84;21166;-91
2022/10/18 01:28:08;;;;;;;12.45;8.58;;;;;;;15.83;87.95;101074.39;2766827;84;21079;-90
2022/10/18 01:32:18;;;;;;;8.78;7.53;;;;;;;15.81;88.10;101073.70;2707707;86;21137;-90
2022/10/18 01:36:33;;;;;;;8.80;6.87;;;;;;;15.77;88.54;101077.66;2705509;85;21206;-90
2022/10/18 01:40:35;;;;;;;10.43;8.08;;;;;;;15.73;88.62;101080.27;2757817;84;21118;-90
2022/10/18 01:44:40;;;;;;;15.68;8.58;;;;;;;15.70;89.06;101075.16;2781576;83;21035;-91
2022/10/18 01:48:41;;;;;;;10.60;9.10;;;;;;;15.64;89.46;101068.55;2788195;83;21087;-91
2022/10/18 01:52:50;;;;;;;12.33;7.65;;;;;;;15.64;89.31;101069.02;2718927;85;21070;-91
2022/10/18 01:57:28;;;;;;;10.65;8.25;;;;;;;15.61;89.80;101060.75;2738094;86;21554;-90
2022/10/18 02:01:38;;;;;;;9.43;8.05;;;;;;;15.61;89.88;101061.27;2809577;83;21627;-90
2022/10/18 02:06:03;;;;;;;13.30;8.20;;;;;;;15.67;89.61;101065.58;2719846;87;21158;-91
2022/10/18 02:10:24;;;;;;;12.30;8.90;;;;;;;15.70;89.22;101051.88;2774579;84;21590;-91
2022/10/18 02:14:26;;;;;;;11.78;8.70;;;;;;;15.77;88.85;101055.33;2695883;86;21206;-90
2022/10/18 02:18:41;;;;;;;11.40;7.47;;;;;;;15.77;88.65;101056.19;2712488;86;21098;-89
2022/10/18 02:22:44;;;;;;;8.13;7.15;;;;;;;15.76;88.56;101048.27;2707283;86;21070;-90
2022/10/18 02:26:46;;;;;;;14.73;9.20;;;;;;;15.75;88.54;101056.83;2782331;84;21111;-90
2022/10/18 02:31:17;;;;;;;10.68;7.10;;;;;;;15.73;88.49;101056.12;2767039;84;21074;-90
2022/10/18 02:35:29;;;;;;;11.18;7.50;;;;;;;15.73;88.50;101058.81;2812094;84;21112;-90
2022/10/18 02:39:36;;;;;;;11.10;7.67;;;;;;;15.71;88.73;101071.01;2699452;86;21133;-90
2022/10/18 02:43:37;;;;;;;10.43;9.43;;;;;;;15.69;88.77;101074.33;2774383;84;21104;-90
2022/10/18 02:47:38;;;;;;;13.35;9.63;;;;;;;15.67;89.04;101070.08;2855437;81;21031;-90
2022/10/18 02:51:39;;;;;;;11.20;9.75;;;;;;;15.65;88.86;101077.42;2868618;81;21032;-91
2022/10/18 02:55:40;;;;;;;9.60;8.38;;;;;;;15.56;89.63;101090.69;2886176;81;21566;-90
2022/10/18 02:59:41;;;;;;;10.43;8.28;;;;;;;15.34;89.37;101077.53;2871014;81;21538;-91
2022/10/18 03:03:43;;;;;;;12.88;10.03;;;;;;;15.24;89.93;101081.02;2873267;80;21594;-87
2022/10/18 03:07:44;;;;;;;11.40;9.00;;;;;;;15.15;90.13;101095.25;2864247;80;21033;-88
2022/10/18 03:11:45;;;;;;;11.22;9.10;;;;;;;15.11;90.65;101090.64;2846140;82;21010;-87
2022/10/18 03:15:47;;;;;;;11.53;8.85;;;;;;;15.05;90.30;101093.88;2840102;82;21026;-87
2022/10/18 03:19:48;;;;;;;16.37;10.23;;;;;;;14.97;91.02;101103.92;2802702;84;21046;-86
2022/10/18 03:23:49;;;;;;;19.02;9.40;;;;;;;14.96;90.97;101100.03;2776377;83;21350;-86
2022/10/18 03:27:51;;;;;;;19.48;12.00;;;;;;;14.96;90.77;101100.89;2853620;81;21055;-86
2022/10/18 03:31:52;;;;;;;10.20;9.13;;;;;;;14.93;90.67;101099.80;2784087;83;21058;-86
2022/10/18 03:35:53;;;;;;;15.10;9.20;;;;;;;14.90;90.76;101106.77;2873509;80;21004;-87
2022/10/18 03:39:54;;;;;;;15.08;10.82;;;;;;;14.88;91.02;101106.05;2805350;83;21034;-86
2022/10/18 03:43:55;;;;;;;14.13;10.40;;;;;;;14.81;91.40;101103.56;2868874;81;21086;-86
2022/10/18 03:47:56;;;;;;;18.27;12.23;;;;;;;14.81;91.56;101117.79;2875436;80;21059;-86
2022/10/18 03:51:57;;;;;;;13.70;12.00;;;;;;;14.80;91.80;101119.28;2868746;81;21031;-84
2022/10/18 03:55:58;;;;;;;13.55;10.20;;;;;;;14.73;92.06;101118.09;2862714;81;21597;-84
2022/10/18 03:59:59;;;;;;;15.10;9.95;;;;;;;14.65;92.22;101118.25;2864933;81;21561;-84
2022/10/18 04:04:01;;;;;;;16.87;13.00;;;;;;;14.56;92.26;101119.88;2864713;82;21510;-88
2022/10/18 04:08:03;;;;;;;12.73;11.22;;;;;;;14.51;93.55;101127.94;2824308;82;21793;-89
2022/10/18 04:12:05;;;;;;;14.85;10.68;;;;;;;14.50;93.96;101128.92;2845208;82;21045;-89
2022/10/18 04:16:06;;;;;;;17.30;12.90;;;;;;;14.43;94.04;101127.26;2833030;82;21045;-88
2022/10/18 04:20:08;;;;;;;17.70;12.25;;;;;;;14.34;94.26;101138.25;2794300;83;21028;-88
2022/10/18 04:24:10;;;;;;;20.08;14.28;;;;;;;14.28;94.16;101138.30;2838551;82;21146;-88
2022/10/18 04:28:11;;;;;;;19.82;13.60;;;;;;;14.17;94.99;101139.69;2848530;81;21058;-89
2022/10/18 04:32:12;;;;;;;14.50;12.50;;;;;;;14.07;96.37;101138.27;2851016;81;21535;-89
2022/10/18 04:36:13;;;;;;;13.72;11.53;;;;;;;13.99;96.78;101140.73;2844680;81;21443;-88
2022/10/18 04:40:15;;;;;;;18.85;12.88;;;;;;;14.03;97.38;101132.81;2832147;82;21506;-88
2022/10/18 04:44:16;;;;;;;42.43;16.02;;;;;;;14.01;97.19;101137.45;2861467;82;21057;-88
2022/10/18 04:48:18;;;;;;;13.72;11.03;;;;;;;14.04;97.53;101146.55;2825469;82;21114;-88
2022/10/18 04:52:19;;;;;;;16.87;11.97;;;;;;;13.97;96.13;101140.02;2807011;83;21062;-89
2022/10/18 04:56:20;;;;;;;17.15;13.40;;;;;;;13.93;96.31;101138.55;2788059;83;21018;-88
2022/10/18 05:00:21;;;;;;;16.35;10.78;;;;;;;13.80;97.09;101136.91;2818376;83;21014;-88
2022/10/18 05:04:22;;;;;;;16.32;13.13;;;;;;;13.64;97.56;101135.13;2779257;83;21083;-88
2022/10/18 05:08:23;;;;;;;14.35;11.68;;;;;;;13.67;98.10;101133.53;2795573;83;21043;-89
2022/10/18 05:12:24;;;;;;;13.93;11.08;;;;;;;13.73;98.21;101133.02;2829285;83;21056;-90
2022/10/18 05:16:27;;;;;;;16.48;11.93;;;;;;;13.76;98.02;101116.75;2808279;82;21050;-90
2022/10/18 05:20:28;;;;;;;14.47;11.88;;;;;;;13.80;98.31;101120.00;2805880;83;21086;-90
2022/10/18 05:24:29;;;;;;;17.07;11.35;;;;;;;13.84;98.40;101124.11;2815097;83;21004;-90
2022/10/18 05:28:31;;;;;;;14.70;11.15;;;;;;;13.82;98.75;101130.08;2799394;83;21070;-90
2022/10/18 05:32:32;;;;;;;18.77;14.10;;;;;;;13.56;99.02;101132.59;2790608;83;21551;-90
2022/10/18 05:36:33;;;;;;;17.70;12.55;;;;;;;13.41;100.00;101129.80;2838841;81;21622;-90
2022/10/18 05:40:38;;;;;;;16.42;11.28;;;;;;;13.40;100.00;101128.09;2782543;81;21708;-89
2022/10/18 05:44:39;;;;;;;20.50;13.03;;;;;;;13.45;100.00;101125.06;2869100;81;21531;-90
2022/10/18 05:48:41;;;;;;;17.42;12.28;;;;;;;13.54;100.00;101127.00;2809724;81;21788;-90
2022/10/18 05:52:42;;;;;;;13.10;9.15;;;;;;;13.72;100.00;101128.65;2796846;84;21071;-90
2022/10/18 05:56:44;;;;;;;16.30;10.30;;;;;;;13.89;100.00;101127.75;2846308;82;21623;-90
2022/10/18 06:00:45;;;;;;;15.70;10.55;;;;;;;14.03;100.00;101128.80;2818168;82;21538;-89
2022/10/18 06:04:46;;;;;;;13.93;9.20;;;;;;;14.21;100.00;101123.72;2819898;82;21053;-90
2022/10/18 06:08:49;;;;;;;14.80;9.85;;;;;;;14.37;100.00;101128.66;2847835;82;21069;-88
2022/10/18 06:12:50;;;;;;;10.32;8.38;;;;;;;14.55;100.00;101130.74;2815617;81;21050;-90
2022/10/18 06:16:51;;;;;;;12.88;11.53;;;;;;;14.65;99.99;101124.94;2844455;82;21094;-88
2022/10/18 06:20:59;;;;;;;12.35;9.23;;;;;;;14.74;99.69;101127.34;2839948;82;21061;-89
2022/10/18 06:25:00;;;;;;;11.40;8.70;;;;;;;14.86;98.99;101130.79;2849833;82;21015;-90
2022/10/18 06:29:01;;;;;;;16.67;9.68;;;;;;;14.97;98.77;101130.72;2859785;81;21008;-90
2022/10/18 06:33:02;;;;;;;14.00;8.63;;;;;;;15.08;98.39;101139.63;2885104;80;21007;-90
2022/10/18 06:37:03;;;;;;;12.82;9.85;;;;;;;15.22;98.59;101138.41;2832549;81;21134;-90
2022/10/18 06:41:05;;;;;;;10.08;8.75;;;;;;;15.40;98.09;101135.44;2826617;81;21048;-90
2022/10/18 06:45:08;;;;;;;13.18;7.87;;;;;;;15.58;97.16;101139.31;2862700;80;21043;-90
2022/10/18 06:49:10;;;;;;;8.70;7.80;;;;;;;15.74;96.67;101136.95;2821601;82;21017;-90
2022/10/18 06:53:11;;;;;;;21.25;8.48;;;;;;;15.87;95.17;101146.55;2848703;82;20989;-89
2022/10/18 06:57:12;;;;;;;10.75;8.88;;;;;;;15.95;94.18;101138.69;2851981;81;21477;-89
2022/10/18 07:01:15;;;;;;;10.25;7.92;;;;;;;16.06;94.96;101137.20;2850419;81;21027;-89
2022/10/18 07:05:17;;;;;;;9.08;8.18;;;;;;;16.13;94.64;101135.66;2810816;81;21047;-89
2022/10/18 07:09:18;;;;;;;12.15;7.70;;;;;;;16.32;95.24;101147.38;2776822;84;21020;-90
2022/10/18 07:13:20;;;;;;;9.95;7.22;;;;;;;16.54;94.58;101144.86;2842720;81;21031;-90
2022/10/18 07:17:21;;;;;;;11.48;9.23;;;;;;;16.75;92.53;101152.39;2847126;82;21054;-90
2022/10/18 07:21:24;;;;;;;12.82;7.80;;;;;;;16.99;93.59;101155.94;2848752;81;21070;-90
2022/10/18 07:25:25;;;;;;;17.10;8.28;;;;;;;17.25;92.52;101145.37;2798182;83;21594;-89
2022/10/18 07:29:27;;;;;;;11.70;8.50;;;;;;;17.54;90.28;101147.55;2842388;82;21053;-89
2022/10/18 07:33:28;;;;;;;35.75;9.58;;;;;;;17.88;90.95;101140.67;2779238;84;21084;-89
2022/10/18 07:37:29;;;;;;;11.68;8.55;;;;;;;18.23;90.18;101144.39;2772547;83;21058;-89
2022/10/18 07:41:32;;;;;;;10.10;7.80;;;;;;;18.56;90.27;101146.01;2789355;83;21034;-88
2022/10/18 07:45:33;;;;;;;11.00;9.65;;;;;;;18.85;87.83;101139.44;2842692;82;21537;-89
2022/10/18 07:49:34;;;;;;;17.98;11.73;;;;;;;18.94;86.00;101138.50;2832265;81;21572;-89
2022/10/18 07:53:36;;;;;;;14.68;10.70;;;;;;;19.08;84.15;101144.34;2762637;82;21678;-90
2022/10/18 07:57:37;;;;;;;14.05;10.48;;;;;;;19.24;84.53;101140.34;2850768;81;21519;-89
2022/10/18 08:01:38;;;;;;;13.35;10.63;;;;;;;19.39;83.29;101137.03;2828090;81;21050;-90
2022/10/18 08:05:39;;;;;;;15.32;10.38;;;;;;;19.54;83.54;101129.14;2851850;82;21042;-89
2022/10/18 08:09:40;;;;;;;18.45;13.53;;;;;;;19.55;81.64;101129.00;2821479;82;21105;-90
2022/10/18 08:13:42;;;;;;;18.35;14.03;;;;;;;19.60;81.71;101127.65;2821755;82;21067;-89
2022/10/18 08:17:43;;;;;;;15.03;12.73;;;;;;;19.68;81.73;101124.46;2825793;83;21067;-89
2022/10/18 08:21:44;;;;;;;11.00;8.23;;;;;;;19.85;82.16;101120.45;2799428;83;21057;-89
2022/10/18 08:25:46;;;;;;;11.63;8.13;;;;;;;20.04;81.04;101111.72;2829228;81;21013;-89
2022/10/18 08:29:47;;;;;;;13.18;9.53;;;;;;;20.15;80.33;101107.84;2853198;81;21078;-89
2022/10/18 08:33:48;;;;;;;15.85;8.70;;;;;;;20.22;79.63;101100.73;2842574;82;21121;-88
2022/10/18 08:37:50;;;;;;;13.90;9.20;;;;;;;20.35;79.73;101088.09;2856450;81;21023;-88
2022/10/18 08:42:14;;;;;;;9.00;7.67;;;;;;;20.49;78.63;101073.03;2845126;82;21010;-89
2022/10/18 08:46:16;;;;;;;9.95;8.45;;;;;;;20.64;79.50;101067.25;2841028;82;21016;-89
2022/10/18 08:50:25;;;;;;;13.78;8.08;;;;;;;20.76;77.50;101069.56;2841441;81;21100;-90
2022/10/18 08:54:39;;;;;;;11.12;7.80;;;;;;;20.94;78.48;101070.20;2796106;84;21037;-89
2022/10/18 08:58:44;;;;;;;11.48;9.38;;;;;;;21.04;77.48;101075.41;2874092;80;21350;-89
2022/10/18 09:03:12;;;;;;;12.07;10.18;;;;;;;21.18;77.43;101062.16;2879315;81;21091;-90
2022/10/18 09:07:44;;;;;;;12.50;9.15;;;;;;;21.31;77.51;101050.23;2871160;80;21038;-89
2022/10/18 09:12:02;;;;;;;13.25;8.75;;;;;;;21.53;76.17;101048.58;2859664;81;21092;-89
2022/10/18 09:16:07;;;;;;;16.85;9.15;;;;;;;21.76;76.59;101046.41;2838335;82;21129;-89
2022/10/18 09:20:22;;;;;;;15.57;10.50;;;;;;;22.02;76.63;101051.97;2847096;82;21077;-89
2022/10/18 09:24:47;;;;;;;13.65;9.95;;;;;;;22.08;75.40;101049.87;2836304;82;21576;-89
2022/10/18 09:29:29;;;;;;;14.65;8.83;;;;;;;22.05;75.39;101037.20;2857979;81;21104;-88
2022/10/18 09:34:00;;;;;;;16.90;9.83;;;;;;;22.15;76.22;101033.73;2842101;82;21061;-90
2022/10/18 09:38:07;;;;;;;11.95;8.85;;;;;;;22.14;75.85;101024.41;2830785;83;21095;-89
2022/10/18 09:42:25;;;;;;;10.48;7.58;;;;;;;22.24;76.06;101023.66;2829645;82;21009;-89
2022/10/18 09:46:31;;;;;;;12.30;9.45;;;;;;;22.27;75.51;101013.79;2815663;82;21662;-89
2022/10/18 09:50:56;;;;;;;18.37;9.93;;;;;;;22.38;75.51;100992.98;2854004;82;21302;-89
2022/10/18 09:55:05;;;;;;;15.75;11.10;;;;;;;22.52;72.40;100970.17;2832101;81;21049;-90
2022/10/18 09:59:12;;;;;;;15.72;10.05;;;;;;;22.70;72.65;100996.05;2823638;82;21022;-89
2022/10/18 10:03:16;;;;;;;16.57;9.10;;;;;;;22.54;72.86;101019.11;2779755;84;21065;-89
2022/10/18 10:07:27;;;;;;;12.28;9.65;;;;;;;22.36;74.71;101023.50;2840750;81;21602;-90
2022/10/18 10:11:44;;;;;;;15.25;9.18;;;;;;;22.29;74.48;101017.16;2854590;82;21060;-89
2022/10/18 10:15:59;;;;;;;10.75;7.70;;;;;;;22.25;75.33;101015.84;2818198;81;21061;-90
2022/10/18 10:20:20;;;;;;;15.13;9.35;;;;;;;22.26;76.32;101006.69;2842116;82;21071;-90
2022/10/18 10:24:27;;;;;;;19.30;11.00;;;;;;;22.24;75.33;100998.73;2852367;82;21053;-90
2022/10/18 10:28:35;;;;;;;12.70;10.20;;;;;;;22.18;74.67;100993.20;2858684;81;21562;-89
2022/10/18 10:32:47;;;;;;;11.40;8.83;;;;;;;22.06;75.26;100972.02;2847810;82;21078;-89
2022/10/18 10:36:52;;;;;;;14.75;10.53;;;;;;;21.94;75.78;100985.66;2834998;81;21021;-90
2022/10/18 10:40:54;;;;;;;;;;;;;;;21.72;77.19;100995.00;2822047;82;21021;-89
2022/10/18 10:44:55;;;;;;;12.53;10.25;;;;;;;21.55;80.06;100979.39;2810165;81;20118;-89
2022/10/18 10:48:59;;;;;;;19.15;11.70;;;;;;;21.36;80.33;100977.50;2791812;82;21030;-89
2022/10/18 10:53:00;;;;;;;17.75;11.73;;;;;;;21.21;82.77;100981.47;2874069;80;21034;-89
2022/10/18 10:57:13;;;;;;;15.10;11.30;;;;;;;21.22;82.79;100973.72;2858783;82;21005;-90
2022/10/18 11:01:32;;;;;;;19.85;12.88;;;;;;;21.21;84.25;100964.41;2819400;82;21533;-90
2022/10/18 11:05:51;;;;;;;21.02;13.32;;;;;;;21.19;84.77;100959.17;2823167;82;22161;-89
2022/10/18 11:10:15;;;;;;;19.25;14.83;;;;;;;21.17;84.88;100953.10;2818314;82;21050;-89
2022/10/18 11:14:24;;;;;;;24.35;15.20;;;;;;;21.22;84.99;100926.88;2818104;81;21040;-88
2022/10/18 11:18:37;;;;;;;22.07;14.18;;;;;;;21.35;84.42;100899.20;2829832;81;21033;-90
2022/10/18 11:23:01;;;;;;;19.75;15.90;;;;;;;21.48;84.27;100914.31;2861708;82;21039;-90
2022/10/18 11:27:19;;;;;;;20.65;17.07;;;;;;;21.51;82.79;100916.66;2872721;81;21091;-90
2022/10/18 11:31:53;;;;;;;29.87;16.12;;;;;;;21.61;83.69;100902.00;2804102;82;21032;-90
2022/10/18 11:36:05;;;;;;;20.35;14.70;;;;;;;21.61;82.15;100892.53;2825649;82;21609;-89
2022/10/18 11:40:33;;;;;;;21.57;14.15;;;;;;;21.52;83.02;100888.56;2815027;83;21043;-90
2022/10/18 11:45:05;;;;;;;24.05;16.77;;;;;;;21.47;83.58;100884.72;2810973;83;21086;-90
2022/10/18 11:49:35;;;;;;;19.92;15.43;;;;;;;21.52;84.56;100876.38;2729869;85;21028;-90
2022/10/18 11:54:10;;;;;;;23.67;16.85;;;;;;;21.53;83.74;100868.59;2759724;85;21074;-90
2022/10/18 11:58:35;;;;;;;22.87;14.38;;;;;;;21.45;84.19;100861.92;2750315;84;21654;-89
2022/10/18 12:03:05;;;;;;;17.95;15.48;;;;;;;21.42;83.96;100846.05;2709608;85;21581;-89
2022/10/18 12:07:10;;;;;;;18.23;16.20;;;;;;;21.40;85.80;100849.43;2689343;85;21185;-90
2022/10/18 12:11:17;;;;;;;24.97;17.33;;;;;;;21.43;86.94;100841.47;2718289;86;21730;-89
2022/10/18 12:15:22;;;;;;;24.50;17.92;;;;;;;21.43;85.79;100841.47;2685272;86;21329;-90
2022/10/18 12:19:26;;;;;;;22.45;18.45;;;;;;;21.44;87.71;100838.59;2728021;85;21143;-90
2022/10/18 12:23:39;;;;;;;23.05;16.20;;;;;;;21.45;86.85;100836.20;2713837;86;21130;-89
2022/10/18 12:27:49;;;;;;;22.95;16.25;;;;;;;21.51;86.08;100825.13;2816473;83;21163;-90
2022/10/18 12:32:05;;;;;;;25.48;18.67;;;;;;;21.50;84.48;100809.42;2830706;82;21028;-90
2022/10/18 12:36:30;;;;;;;26.17;18.50;;;;;;;21.68;85.61;100796.07;2823646;82;21089;-89
2022/10/18 12:40:45;;;;;;;17.60;15.58;;;;;;;21.73;85.71;100797.70;2854457;81;21034;-89
2022/10/18 12:44:47;;;;;;;20.17;15.10;;;;;;;21.70;83.23;100795.37;2882509;81;21070;-90
2022/10/18 12:49:04;;;;;;;23.65;13.90;;;;;;;21.86;83.16;100786.73;2830885;82;21432;-90
2022/10/18 12:53:25;;;;;;;23.70;13.22;;;;;;;21.89;78.78;100779.58;2855528;82;21056;-90
2022/10/18 12:57:48;;;;;;;17.15;14.98;;;;;;;21.87;78.93;100777.58;2871547;80;21094;-89
2022/10/18 13:01:55;;;;;;;25.68;15.85;;;;;;;21.78;80.80;100772.25;2784873;83;21045;-90
2022/10/18 13:05:59;;;;;;;22.02;17.37;;;;;;;21.86;81.64;100774.55;2826945;81;21035;-89
2022/10/18 13:10:14;;;;;;;19.95;14.68;;;;;;;21.88;83.95;100783.31;2820210;83;21544;-89
2022/10/18 13:15:04;;;;;;;25.10;14.90;;;;;;;21.81;83.99;100782.72;2841764;82;21065;-89
2022/10/18 13:19:20;;;;;;;20.20;16.07;;;;;;;21.63;84.92;100804.71;2820684;83;21084;-89
2022/10/18 13:23:33;;;;;;;18.55;14.07;;;;;;;21.22;88.18;100837.11;2822542;82;21088;-88
2022/10/18 13:27:45;;;;;;;19.02;13.62;;;;;;;20.77;90.95;100852.28;2847059;82;21503;-89
2022/10/18 13:32:07;;;;;;;19.30;15.20;;;;;;;20.40;97.17;100873.09;2849658;81;21097;-89
2022/10/18 13:36:23;;;;;;;26.77;17.10;;;;;;;19.83;100.00;100893.02;2822942;82;21398;-89
2022/10/18 13:40:25;;;;;;;19.80;17.52;;;;;;;19.19;100.00;100902.68;2820352;81;21013;-91
2022/10/18 13:44:42;;;;;;;29.57;13.75;;;;;;;18.74;100.00;100906.62;2852395;81;21046;-89
2022/10/18 13:48:41;;;;;;;22.42;14.40;;;;;;;18.41;100.00;100908.20;2841066;81;21642;-93
2022/10/18 13:53:15;;;;;;;15.60;13.13;;;;;;;18.13;100.00;100906.22;2856407;80;21510;-94
2022/10/18 13:58:01;;;;;;;14.18;10.55;;;;;;;17.93;100.00;100931.16;2871402;81;21059;-94
2022/10/18 14:02:23;;;;;;;12.82;11.45;;;;;;;17.72;100.00;100939.09;2849937;81;21647;-90
2022/10/18 14:06:41;;;;;;;13.85;11.70;;;;;;;17.52;100.00;100940.62;2835730;82;21074;-89
2022/10/18 14:10:53;;;;;;;9.85;8.38;;;;;;;17.48;100.00;100940.56;2839664;81;21041;-87
2022/10/18 14:15:06;;;;;;;9.93;8.15;;;;;;;17.34;100.00;100940.62;2835748;82;21041;-87
2022/10/18 14:19:34;;;;;;;6.62;6.00;;;;;;;17.25;100.00;100949.63;2821927;81;22271;-86
2022/10/18 14:23:40;;;;;;;3.22;2.92;;;;;;;17.10;100.00;100962.75;2844366;81;21077;-87
2022/10/18 14:27:42;;;;;;;3.02;2.02;;;;;;;16.87;100.00;100977.91;2880076;81;21063;-87
2022/10/18 14:31:51;;;;;;;2.22;1.77;;;;;;;16.75;100.00;100983.15;2826982;80;20968;-87
2022/10/18 14:36:07;;;;;;;3.20;2.12;;;;;;;16.65;100.00;100982.69;2840961;82;21003;-87
2022/10/18 14:40:28;;;;;;;;;;;;;;;16.50;100.00;100991.73;2848390;82;21047;-88
2022/10/18 14:44:31;;;;;;;2.35;1.77;;;;;;;16.42;100.00;100987.09;2842704;81;20192;-89
2022/10/18 14:48:32;;;;;;;2.92;1.50;;;;;;;16.33;100.00;101000.55;2859983;80;21055;-88
2022/10/18 14:52:33;;;;;;;2.05;1.57;;;;;;;16.27;100.00;101004.66;2847668;81;21074;-88
2022/10/18 14:56:39;;;;;;;3.15;1.87;;;;;;;16.33;100.00;101005.92;2861731;81;21125;-87
2022/10/18 15:00:41;;;;;;;1.80;1.70;;;;;;;16.39;100.00;101014.73;2854696;81;21440;-87
2022/10/18 15:04:48;;;;;;;1.67;1.40;;;;;;;16.41;100.00;101025.69;2800608;81;21081;-88
2022/10/18 15:08:57;;;;;;;1.90;1.57;;;;;;;16.37;100.00;101035.03;2881319;80;21519;-87
2022/10/18 15:13:02;;;;;;;5.12;2.72;;;;;;;16.42;100.00;101035.42;2877434;81;21015;-87
2022/10/18 15:17:26;;;;;;;3.77;2.08;;;;;;;16.48;100.00;101030.45;2845553;81;21087;-88
2022/10/18 15:21:27;;;;;;;3.17;1.87;;;;;;;16.47;100.00;101026.08;2837914;82;21084;-86
2022/10/18 15:25:31;;;;;;;3.77;1.60;;;;;;;16.51;100.00;101011.39;2830904;82;21084;-86
2022/10/18 15:29:35;;;;;;;1.52;1.42;;;;;;;16.62;100.00;100998.27;2838188;82;21001;-87
2022/10/18 15:33:36;;;;;;;3.62;1.77;;;;;;;16.64;100.00;101012.40;2829577;82;21049;-86
2022/10/18 15:37:44;;;;;;;3.37;1.60;;;;;;;16.58;100.00;101019.20;2837973;81;21414;-86
2022/10/18 15:41:56;;;;;;;5.40;3.08;;;;;;;16.48;100.00;101023.27;2844865;82;21037;-86
2022/10/18 15:46:02;;;;;;;3.90;3.15;;;;;;;16.26;100.00;101027.13;2836093;82;21068;-87
2022/10/18 15:50:04;;;;;;;4.55;3.35;;;;;;;16.15;100.00;101030.00;2843879;81;21103;-86
2022/10/18 15:54:09;;;;;;;4.00;3.02;;;;;;;16.00;100.00;101026.41;2820200;82;21046;-86
2022/10/18 15:58:30;;;;;;;2.42;1.77;;;;;;;15.91;100.00;101029.94;2819386;82;21082;-86
2022/10/18 16:02:32;;;;;;;2.27;1.87;;;;;;;15.81;100.00;101037.48;2825145;82;20994;-88
2022/10/18 16:06:38;;;;;;;1.95;1.72;;;;;;;15.78;100.00;101040.45;2859572;81;20987;-88
2022/10/18 16:10:43;;;;;;;;;;;;;;;15.78;100.00;101041.80;2848226;82;21088;-88
2022/10/18 16:14:42;;;;;;;4.22;2.40;;;;;;;15.82;100.00;101036.49;2845289;81;20180;-87
2022/10/18 16:18:43;;;;;;;2.52;2.10;;;;;;;15.89;100.00;101034.13;2854369;81;21441;-87
2022/10/18 16:22:44;;;;;;;3.27;2.08;;;;;;;16.02;100.00;101041.88;2833361;82;21080;-87
2022/10/18 16:26:53;;;;;;;3.35;2.45;;;;;;;16.08;100.00;101042.63;2838152;82;21066;-88
2022/10/18 16:30:59;;;;;;;3.35;3.05;;;;;;;15.96;100.00;101045.13;2799322;82;21674;-89
2022/10/18 16:35:00;;;;;;;5.10;3.80;;;;;;;15.92;100.00;101045.91;2842361;82;21057;-87
2022/10/18 16:39:08;;;;;;;4.35;3.62;;;;;;;15.99;100.00;101047.53;2777720;84;21605;-88
2022/10/18 16:43:09;;;;;;;6.28;3.92;;;;;;;15.92;100.00;101059.32;2795132;82;21095;-88
2022/10/18 16:47:10;;;;;;;4.80;4.40;;;;;;;15.83;100.00;101067.69;2786861;83;21099;-88
2022/10/18 16:51:12;;;;;;;9.35;6.20;;;;;;;15.67;100.00;101074.97;2827134;82;21404;-87
2022/10/18 16:55:20;;;;;;;10.90;7.95;;;;;;;15.55;100.00;101086.31;2847025;82;21077;-87
2022/10/18 16:59:27;;;;;;;10.03;7.03;;;;;;;15.54;100.00;101086.44;2844021;81;21105;-88
2022/10/18 17:03:28;;;;;;;11.93;7.92;;;;;;;15.45;100.00;101088.12;2825253;81;21046;-88
2022/10/18 17:07:29;;;;;;;10.25;8.38;;;;;;;15.49;100.00;101094.89;2849928;82;21643;-87
2022/10/18 17:11:34;;;;;;;10.90;7.10;;;;;;;15.50;100.00;101093.91;2871924;82;22196;-88
2022/10/18 17:15:35;;;;;;;23.77;7.92;;;;;;;15.47;100.00;101106.25;2850402;81;21115;-86
2022/10/18 17:19:36;;;;;;;7.87;5.85;;;;;;;15.40;100.00;101095.73;2867916;81;21099;-87
2022/10/18 17:23:38;;;;;;;10.15;7.17;;;;;;;15.44;100.00;101097.66;2808810;81;21063;-87
2022/10/18 17:27:39;;;;;;;9.18;6.30;;;;;;;15.45;100.00;101108.22;2831597;81;21016;-87
2022/10/18 17:31:40;;;;;;;10.70;6.83;;;;;;;15.42;100.00;101110.67;2836104;81;21092;-87
2022/10/18 17:35:42;;;;;;;10.53;7.20;;;;;;;15.48;100.00;101125.37;2849444;82;21077;-87
2022/10/18 17:39:43;;;;;;;8.75;6.12;;;;;;;15.49;100.00;101114.17;2842970;81;21085;-90
2022/10/18 17:43:46;;;;;;;8.50;6.17;;;;;;;15.45;100.00;101113.59;2837882;82;21572;-89
2022/10/18 17:47:48;;;;;;;8.63;6.45;;;;;;;15.44;100.00;101113.23;2856271;80;21171;-90
2022/10/18 17:51:49;;;;;;;9.45;6.65;;;;;;;15.37;100.00;101117.46;2853379;81;21160;-90
2022/10/18 17:55:59;;;;;;;9.45;7.00;;;;;;;15.30;100.00;101113.61;2782729;81;21040;-90
2022/10/18 18:00:01;;;;;;;9.43;6.25;;;;;;;15.20;100.00;101118.47;2830081;82;21033;-90
2022/10/18 18:04:03;;;;;;;9.60;6.83;;;;;;;15.17;100.00;101115.20;2840885;81;21044;-91
2022/10/18 18:08:04;;;;;;;10.05;6.60;;;;;;;15.18;100.00;101116.41;2831355;82;21641;-90
2022/10/18 18:12:05;;;;;;;13.20;7.67;;;;;;;15.12;100.00;101123.63;2878269;81;21030;-90
2022/10/18 18:16:16;;;;;;;9.60;7.72;;;;;;;15.15;100.00;101130.09;2841870;82;21029;-92
2022/10/18 18:20:19;;;;;;;10.63;7.30;;;;;;;15.16;100.00;101137.14;2853213;80;21081;-90
2022/10/18 18:24:23;;;;;;;10.72;8.25;;;;;;;15.17;100.00;101137.97;2755913;83;21090;-91
2022/10/18 18:28:24;;;;;;;8.70;7.53;;;;;;;15.18;100.00;101133.83;2839006;82;21083;-91
2022/10/18 18:32:25;;;;;;;8.23;7.15;;;;;;;15.22;100.00;101133.91;2853934;81;21028;-90
2022/10/18 18:36:28;;;;;;;8.38;7.37;;;;;;;15.28;100.00;101123.98;2856795;81;21041;-91
2022/10/18 18:40:29;;;;;;;11.57;8.20;;;;;;;15.36;100.00;101123.30;2856043;80;21089;-91
2022/10/18 18:44:32;;;;;;;11.65;8.65;;;;;;;15.44;100.00;101125.80;2861457;81;21038;-90
2022/10/18 18:48:35;;;;;;;11.25;8.70;;;;;;;15.45;100.00;101122.97;2760986;82;21396;-91
2022/10/18 18:52:37;;;;;;;9.48;7.45;;;;;;;15.48;100.00;101120.01;2828368;81;29589;-91